Republican, Arkansas
Current Conditions -  °F | °C
As of 6:58 PM on Saturday 22 Nov 2014 (Local Time) from KLRF Reporting Station
Clear Clear  
Wind Chill: 50°   Ceiling: Unl
Heat Index: 50°   Visibility: 10mi
Dew Point: 49°   Wind: 3mph
Humidity: 94%   Direction: 100°E
Pressure: 29.98"   Gusts: NA
Location:  35.2494°N, 92.313°W
Report Text: KLRF 230058Z AUTO 10003KT 10SM CLR 10/09 A2998 RMK AO2 SLP155 T01020093
Loading
Personal Weather Stations






























Interactive Weather Map New forecast layout! Learn more

10-Day Weather Forecast

Advertisements
Track Severe Weather on mobile